Marlborough, Connecticut
Current Conditions -  °F | °C
As of 2:53 PM on Wednesday 28 Jan 2015 (Local Time) from KHFD Reporting Station
Clear Clear  
Wind Chill: 16°   Ceiling: Unl
Heat Index: 25°   Visibility: 10mi
Dew Point:   Wind: 9mph
Humidity: 51%   Direction: 30°NNE
Pressure: 30.05"   Gusts: NA
Location:  41.63°N, 72.46°W
Report Text: KHFD 281953Z 03008KT 10SM CLR M04/M13 A3005 RMK AO2 SLP176 T10391128
Loading
Personal Weather Stations






























Interactive Weather Map New forecast layout! Learn more

10-Day Weather Forecast

Advertisements
Track Severe Weather on mobile